Time,TemperatureF,DewpointF,PressureIn,WindDirection,WindDirectionDegrees,WindSpeedMPH,WindSpeedGustMPH,Humidity,HourlyPrecipIn,Conditions,Clouds,dailyrainin,SoftwareType,DateUTC
2013-04-09 00:14:00,73.1,68.0,30.06,ESE,108,0.0,3.0,83,0.00,,,0.00,weatherlink.com 1.10,2013-04-09 10:14:00,
2013-04-09 00:33:00,72.9,67.0,30.06,East,90,0.0,6.0,81,0.00,,,0.00,weatherlink.com 1.10,2013-04-09 10:33:00,
2013-04-09 00:51:00,73.1,67.0,30.05,East,98,0.0,3.0,82,0.00,,,0.00,weatherlink.com 1.10,2013-04-09 10:51:00,
2013-04-09 01:27:00,73.5,68.0,30.04,ENE,76,1.0,5.0,83,0.00,,,0.00,weatherlink.com 1.10,2013-04-09 11:27:00,
2013-04-09 01:45:00,73.1,68.0,30.04,ESE,121,2.0,4.0,85,0.00,,,0.00,weatherlink.com 1.10,2013-04-09 11:45:00,
2013-04-09 02:03:00,73.0,68.0,30.03,NE,55,1.0,7.0,84,0.00,,,0.00,weatherlink.com 1.10,2013-04-09 12:03:00,
2013-04-09 02:39:00,72.7,68.0,30.01,NE,36,2.0,7.0,84,0.00,,,0.00,weatherlink.com 1.10,2013-04-09 12:39:00,
2013-04-09 02:58:00,72.7,68.0,30.00,East,80,1.0,4.0,85,0.00,,,0.00,weatherlink.com 1.10,2013-04-09 12:58:00,
2013-04-09 03:16:00,72.5,68.0,30.00,ESE,102,0.0,8.0,85,0.00,,,0.00,weatherlink.com 1.10,2013-04-09 13:16:00,
2013-04-09 03:34:00,72.7,68.0,29.99,ENE,78,0.0,9.0,84,0.00,,,0.00,weatherlink.com 1.10,2013-04-09 13:34:00,
2013-04-09 04:12:00,72.8,67.0,29.99,ENE,71,0.0,8.0,83,0.00,,,0.00,weatherlink.com 1.10,2013-04-09 14:12:00,
2013-04-09 04:30:00,72.8,68.0,29.98,East,81,1.0,7.0,84,0.00,,,0.00,weatherlink.com 1.10,2013-04-09 14:30:00,
2013-04-09 05:07:00,72.9,68.0,29.98,ESE,117,0.0,7.0,84,0.00,,,0.00,weatherlink.com 1.10,2013-04-09 15:07:00,
2013-04-09 05:25:00,72.6,67.0,29.99,ESE,109,0.0,5.0,83,0.00,,,0.00,weatherlink.com 1.10,2013-04-09 15:25:00,
2013-04-09 05:43:00,72.5,67.0,29.99,SE,140,2.0,6.0,84,0.00,,,0.00,weatherlink.com 1.10,2013-04-09 15:43:00,
2013-04-09 06:22:00,72.3,67.0,29.99,ESE,105,0.0,1.0,84,0.00,,,0.00,weatherlink.com 1.10,2013-04-09 16:22:00,
2013-04-09 06:59:00,73.4,68.0,30.01,NE,55,0.0,7.0,83,0.00,,,0.00,weatherlink.com 1.10,2013-04-09 16:59:00,
2013-04-09 07:17:00,73.8,68.0,30.02,ESE,104,2.0,5.0,83,0.00,,,0.00,weatherlink.com 1.10,2013-04-09 17:17:00,
2013-04-09 07:36:00,74.5,68.0,30.02,East,96,0.0,5.0,81,0.00,,,0.00,weatherlink.com 1.10,2013-04-09 17:36:00,
2013-04-09 08:04:00,76.1,69.0,30.03,East,89,1.0,8.0,78,0.00,,,0.00,weatherlink.com 1.10,2013-04-09 18:04:00,
2013-04-09 08:22:00,76.0,69.0,30.03,ESE,123,0.0,6.0,80,0.00,,,0.00,weatherlink.com 1.10,2013-04-09 18:22:00,
2013-04-09 08:40:00,77.8,70.0,30.03,SSW,204,4.0,7.0,76,0.00,,,0.00,weatherlink.com 1.10,2013-04-09 18:40:00,
2013-04-09 08:58:00,78.5,70.0,30.04,SE,130,3.0,8.0,75,0.00,,,0.00,weatherlink.com 1.10,2013-04-09 18:58:00,
2013-04-09 09:17:00,78.0,69.0,30.04,South,173,5.0,11.0,74,0.00,,,0.00,weatherlink.com 1.10,2013-04-09 19:17:00,
2013-04-09 09:35:00,78.8,71.0,30.05,ENE,59,0.0,10.0,77,0.00,,,0.00,weatherlink.com 1.10,2013-04-09 19:35:00,
2013-04-09 09:53:00,78.4,70.0,30.05,East,79,1.0,8.0,75,0.00,,,0.00,weatherlink.com 1.10,2013-04-09 19:53:00,
2013-04-09 10:11:00,78.6,71.0,30.05,East,91,6.0,9.0,78,0.00,,,0.00,weatherlink.com 1.10,2013-04-09 20:11:00,
2013-04-09 10:33:00,80.1,71.0,30.04,East,99,3.0,13.0,73,0.00,,,0.00,weatherlink.com 1.10,2013-04-09 20:33:00,
2013-04-09 10:51:00,80.1,70.0,30.04,NE,56,3.0,8.0,72,0.00,,,0.00,weatherlink.com 1.10,2013-04-09 20:51:00,
2013-04-09 11:10:00,80.6,71.0,30.04,NNE,30,2.0,8.0,73,0.00,,,0.00,weatherlink.com 1.10,2013-04-09 21:10:00,
2013-04-09 11:28:00,79.9,71.0,30.04,ESE,102,5.0,9.0,74,0.00,,,0.00,weatherlink.com 1.10,2013-04-09 21:28:00,
2013-04-09 12:04:00,79.7,71.0,30.03,NE,37,5.0,8.0,74,0.00,,,0.00,weatherlink.com 1.10,2013-04-09 22:04:00,
2013-04-09 12:23:00,80.4,71.0,30.03,East,80,3.0,8.0,72,0.00,,,0.00,weatherlink.com 1.10,2013-04-09 22:23:00,
2013-04-09 12:40:00,80.7,72.0,30.02,NE,38,6.0,9.0,74,0.00,,,0.00,weatherlink.com 1.10,2013-04-09 22:40:00,
2013-04-09 12:58:00,80.2,71.0,30.01,ENE,63,2.0,10.0,74,0.00,,,0.00,weatherlink.com 1.10,2013-04-09 22:58:00,
2013-04-09 13:35:00,78.8,69.0,30.00,NNW,342,7.0,10.0,73,0.00,,,0.00,weatherlink.com 1.10,2013-04-09 23:35:00,
2013-04-09 13:53:00,78.4,70.0,30.00,NE,55,0.0,8.0,76,0.00,,,0.00,weatherlink.com 1.10,2013-04-09 23:53:00,
2013-04-09 14:11:00,77.5,69.0,30.00,NNE,18,5.0,7.0,76,0.00,,,0.00,weatherlink.com 1.10,2013-04-10 00:11:00,
2013-04-09 14:30:00,77.5,69.0,29.99,NNE,26,4.0,8.0,76,0.00,,,0.00,weatherlink.com 1.10,2013-04-10 00:30:00,
2013-04-09 15:11:00,77.3,70.0,29.98,ENE,59,5.0,9.0,78,0.00,,,0.00,weatherlink.com 1.10,2013-04-10 01:11:00,
2013-04-09 15:29:00,78.3,69.0,29.98,North,11,3.0,7.0,73,0.00,,,0.00,weatherlink.com 1.10,2013-04-10 01:29:00,
2013-04-09 15:48:00,78.3,69.0,29.97,NNE,31,6.0,8.0,72,0.00,,,0.00,weatherlink.com 1.10,2013-04-10 01:48:00,
2013-04-09 16:05:00,78.7,69.0,29.98,NE,38,1.0,7.0,73,0.00,,,0.00,weatherlink.com 1.10,2013-04-10 02:05:00,
2013-04-09 16:24:00,76.9,68.0,29.98,East,92,0.0,9.0,75,0.00,,,0.00,weatherlink.com 1.10,2013-04-10 02:24:00,
2013-04-09 16:42:00,76.5,68.0,29.98,SE,132,0.0,5.0,75,0.00,,,0.00,weatherlink.com 1.10,2013-04-10 02:42:00,
2013-04-09 17:00:00,76.4,69.0,29.98,ENE,61,0.0,6.0,78,0.00,,,0.00,weatherlink.com 1.10,2013-04-10 03:00:00,
2013-04-09 17:18:00,76.5,69.0,29.98,SSE,163,5.0,5.0,78,0.00,,,0.00,weatherlink.com 1.10,2013-04-10 03:18:00,
2013-04-09 17:37:00,75.6,68.0,29.99,ENE,63,1.0,6.0,78,0.00,,,0.00,weatherlink.com 1.10,2013-04-10 03:37:00,
2013-04-09 17:55:00,75.6,68.0,29.99,ESE,121,1.0,4.0,78,0.00,,,0.00,weatherlink.com 1.10,2013-04-10 03:55:00,
2013-04-09 18:14:00,75.4,68.0,30.00,East,99,2.0,7.0,78,0.00,,,0.00,weatherlink.com 1.10,2013-04-10 04:14:00,
2013-04-09 18:33:00,75.0,68.0,30.01,East,88,1.0,6.0,78,0.00,,,0.00,weatherlink.com 1.10,2013-04-10 04:33:00,
2013-04-09 18:51:00,74.6,68.0,30.01,NE,44,1.0,5.0,79,0.00,,,0.00,weatherlink.com 1.10,2013-04-10 04:51:00,
2013-04-09 19:09:00,74.4,68.0,30.02,SE,129,3.0,5.0,80,0.00,,,0.00,weatherlink.com 1.10,2013-04-10 05:09:00,
2013-04-09 19:28:00,74.1,67.0,30.03,NNE,18,2.0,3.0,79,0.00,,,0.00,weatherlink.com 1.10,2013-04-10 05:28:00,
2013-04-09 19:46:00,74.1,68.0,30.03,ENE,58,1.0,5.0,80,0.00,,,0.00,weatherlink.com 1.10,2013-04-10 05:46:00,
2013-04-09 20:06:00,74.1,68.0,30.04,NE,51,0.0,5.0,80,0.00,,,0.00,weatherlink.com 1.10,2013-04-10 06:06:00,
2013-04-09 20:44:00,74.2,68.0,30.05,NE,36,1.0,7.0,81,0.00,,,0.00,weatherlink.com 1.10,2013-04-10 06:44:00,
2013-04-09 21:03:00,74.3,68.0,30.06,East,92,0.0,5.0,80,0.00,,,0.00,weatherlink.com 1.10,2013-04-10 07:03:00,
2013-04-09 21:21:00,73.9,68.0,30.07,SE,145,1.0,5.0,81,0.00,,,0.00,weatherlink.com 1.10,2013-04-10 07:21:00,
2013-04-09 21:39:00,74.0,68.0,30.07,NE,38,3.0,5.0,82,0.00,,,0.00,weatherlink.com 1.10,2013-04-10 07:39:00,
2013-04-09 21:57:00,74.2,68.0,30.07,East,86,0.0,5.0,82,0.00,,,0.00,weatherlink.com 1.10,2013-04-10 07:57:00,
2013-04-09 22:15:00,74.3,68.0,30.07,ENE,69,2.0,7.0,82,0.00,,,0.00,weatherlink.com 1.10,2013-04-10 08:15:00,
2013-04-09 22:34:00,74.3,68.0,30.07,ESE,104,3.0,5.0,82,0.00,,,0.00,weatherlink.com 1.10,2013-04-10 08:34:00,
2013-04-09 22:52:00,74.3,69.0,30.07,NE,56,1.0,5.0,83,0.00,,,0.00,weatherlink.com 1.10,2013-04-10 08:52:00,
2013-04-09 23:10:00,74.4,69.0,30.06,ESE,111,3.0,9.0,83,0.00,,,0.00,weatherlink.com 1.10,2013-04-10 09:10:00,
2013-04-09 23:28:00,74.3,69.0,30.06,ENE,59,3.0,9.0,84,0.00,,,0.00,weatherlink.com 1.10,2013-04-10 09:28:00,
2013-04-09 23:47:00,74.2,69.0,30.06,East,96,1.0,9.0,84,0.00,,,0.00,weatherlink.com 1.10,2013-04-10 09:47:00,